»·PEaware :: N7GL KIFP-KHND

N7GL :: KIFP-KHND

FLIGHT INFORMATION

Flight Status: Arrived
Operator: Privately registered:
United States
More flights under this callsign
Pilot: Georg L. (13308)
Aircraft: BEECH AIRCRAFT SUPER KING AIR 350
(B350)
More flights by this aircraft type
Origin: KIFP Laughlin/Bullhead Intl
United States
Destination: KHND Henderson
United States
More flights between these airports :: More routes between these airports
Route: LYNSY V237 BLD
File this flight plan on PilotEdge
Remarks:
Altitude:
(Current/Filed)
10,000ft
Speed:
(Current/Filed)
283kts
Departed: 13-Oct-20 11:06 AM
Arrived: 13-Oct-20 11:23 AM
Distance/Time
Traveled:
57nm/0:16
Distance/Time
To Go:
Arrived

Flight Plot

Page will automatically refresh every two minutes.

Flight plan parsing failed; only flown route is shown


Map Options




Map Legend


Flown Route
Filed Route
Departure Airport
Arrival Airport
Navaid (VOR, NDB)
Fix

Horizontal Profiles

Position Reports

Time Latitude Longitude Heading Altitude Ground
Speed
13-Oct-20 10:37 35.160458 -114.556443 270 706ft 0kts
13-Oct-20 10:38 35.160458 -114.556443 270 706ft 0kts
13-Oct-20 10:39 35.160458 -114.556443 270 706ft 0kts
13-Oct-20 10:40 35.160458 -114.556443 270 706ft 0kts
13-Oct-20 10:41 35.160458 -114.556443 270 706ft 0kts
13-Oct-20 10:42 35.160458 -114.556443 270 706ft 0kts
13-Oct-20 10:43 35.160458 -114.556443 270 706ft 0kts
13-Oct-20 10:44 35.160458 -114.556443 270 706ft 0kts
13-Oct-20 10:45 35.160458 -114.556443 270 706ft 0kts
13-Oct-20 10:46 35.160458 -114.556443 270 706ft 0kts
13-Oct-20 10:47 35.160458 -114.556443 270 706ft 0kts
13-Oct-20 10:48 35.160458 -114.556443 270 706ft 0kts
13-Oct-20 10:49 35.160458 -114.556443 270 706ft 0kts
13-Oct-20 10:50 35.160458 -114.556443 270 706ft 0kts
13-Oct-20 10:51 35.160458 -114.556443 270 706ft 0kts
13-Oct-20 10:52 35.160458 -114.556443 270 706ft 0kts
13-Oct-20 10:53 35.160458 -114.556443 270 706ft 0kts
13-Oct-20 10:54 35.160458 -114.556443 270 706ft 0kts
13-Oct-20 10:55 35.160458 -114.556443 270 706ft 0kts
13-Oct-20 10:56 35.160458 -114.556443 270 706ft 0kts
13-Oct-20 10:57 35.160458 -114.556443 270 706ft 0kts
13-Oct-20 10:58 35.159553 -114.556816 256 706ft 8kts
13-Oct-20 10:59 35.156548 -114.558078 176 706ft 23kts
13-Oct-20 11:00 35.149841 -114.557579 175 706ft 23kts
13-Oct-20 11:01 35.143500 -114.557235 180 706ft 10kts
13-Oct-20 11:02 35.143148 -114.557510 267 706ft 0kts
13-Oct-20 11:03 35.143148 -114.557509 267 706ft 0kts
13-Oct-20 11:04 35.143345 -114.558432 326 706ft 14kts
13-Oct-20 11:05 35.169636 -114.560562 358 1929ft 113kts
13-Oct-20 11:06 35.203528 -114.562079 357 3401ft 137kts
13-Oct-20 11:07 35.251342 -114.564481 357 4518ft 186kts
13-Oct-20 11:08 35.303436 -114.566763 358 6113ft 189kts
13-Oct-20 11:09 35.354357 -114.579226 333 7580ft 192kts
13-Oct-20 11:10 35.402766 -114.608241 334 9153ft 194kts
13-Oct-20 11:11 35.453551 -114.637358 333 10012ft 225kts
13-Oct-20 11:12 35.515927 -114.672929 334 9992ft 262kts
13-Oct-20 11:13 35.584126 -114.711959 333 9985ft 276kts
13-Oct-20 11:14 35.654620 -114.752004 337 9981ft 281kts
13-Oct-20 11:15 35.723393 -114.792865 299 9811ft 281kts
13-Oct-20 11:16 35.754078 -114.885862 291 8381ft 301kts
13-Oct-20 11:17 35.783986 -114.978869 291 6850ft 285kts
13-Oct-20 11:18 35.811958 -115.066731 291 5852ft 255kts
13-Oct-20 11:19 35.849810 -115.133466 315 5207ft 241kts
13-Oct-20 11:20 35.905978 -115.136254 358 4779ft 194kts
13-Oct-20 11:22 35.951144 -115.135721 0 2868ft 125kts
13-Oct-20 11:23 35.974385 -115.135536 311 2432ft 10kts
13-Oct-20 11:24 35.974608 -115.138640 1 2426ft 7kts
13-Oct-20 11:25 35.977180 -115.138210 93 2415ft 4kts
13-Oct-20 11:26 35.977367 -115.137458 0 2416ft 0kts
13-Oct-20 11:27 35.977366 -115.137458 0 2416ft 0kts
13-Oct-20 11:28 35.977366 -115.137458 0 2416ft 0kts
13-Oct-20 11:29 35.977366 -115.137458 0 2416ft 0kts
13-Oct-20 11:30 35.977366 -115.137458 0 2416ft 0kts
13-Oct-20 11:31 35.977366 -115.137458 0 2416ft 0kts

Navigation Log

Ident Type
Flight plan parsing failed, navigation log unavailable